sensor_id;sensor_type;location;lat;lon;timestamp;temperature;humidity
39665;DHT22;26679;50.872;4.332;2023-04-24T00:00:45;10.30;99.90
39665;DHT22;26679;50.872;4.332;2023-04-24T00:03:10;10.30;99.90
39665;DHT22;26679;50.872;4.332;2023-04-24T00:05:36;10.30;99.90
39665;DHT22;26679;50.872;4.332;2023-04-24T00:08:01;10.30;99.90
39665;DHT22;26679;50.872;4.332;2023-04-24T00:10:27;10.20;99.90
39665;DHT22;26679;50.872;4.332;2023-04-24T00:12:52;10.10;99.90
39665;DHT22;26679;50.872;4.332;2023-04-24T00:15:18;10.00;99.90
39665;DHT22;26679;50.872;4.332;2023-04-24T00:17:43;9.80;99.90
39665;DHT22;26679;50.872;4.332;2023-04-24T00:20:09;9.70;99.90
39665;DHT22;26679;50.872;4.332;2023-04-24T00:22:36;9.70;99.90
39665;DHT22;26679;50.872;4.332;2023-04-24T00:25:01;9.70;99.90
39665;DHT22;26679;50.872;4.332;2023-04-24T00:27:27;9.60;99.90
39665;DHT22;26679;50.872;4.332;2023-04-24T00:29:52;9.60;99.90
39665;DHT22;26679;50.872;4.332;2023-04-24T00:32:18;9.50;99.90
39665;DHT22;26679;50.872;4.332;2023-04-24T00:34:44;9.50;99.90
39665;DHT22;26679;50.872;4.332;2023-04-24T00:37:09;9.40;99.90
39665;DHT22;26679;50.872;4.332;2023-04-24T00:39:35;9.40;99.90
39665;DHT22;26679;50.872;4.332;2023-04-24T00:42:00;9.50;99.90
39665;DHT22;26679;50.872;4.332;2023-04-24T00:44:27;9.50;99.90
39665;DHT22;26679;50.872;4.332;2023-04-24T00:46:53;9.40;99.90
39665;DHT22;26679;50.872;4.332;2023-04-24T00:49:20;9.40;99.90
39665;DHT22;26679;50.872;4.332;2023-04-24T00:51:45;9.40;99.90
39665;DHT22;26679;50.872;4.332;2023-04-24T00:54:15;9.50;99.90
39665;DHT22;26679;50.872;4.332;2023-04-24T00:56:41;9.40;99.90
39665;DHT22;26679;50.872;4.332;2023-04-24T00:59:07;9.60;99.90
39665;DHT22;26679;50.872;4.332;2023-04-24T01:01:33;9.50;99.90
39665;DHT22;26679;50.872;4.332;2023-04-24T01:03:58;9.50;99.90
39665;DHT22;26679;50.872;4.332;2023-04-24T01:06:27;9.40;99.90
39665;DHT22;26679;50.872;4.332;2023-04-24T01:08:53;9.60;99.90
39665;DHT22;26679;50.872;4.332;2023-04-24T01:11:19;9.40;99.90
39665;DHT22;26679;50.872;4.332;2023-04-24T01:13:45;9.40;99.90
39665;DHT22;26679;50.872;4.332;2023-04-24T01:16:11;9.40;99.90
39665;DHT22;26679;50.872;4.332;2023-04-24T01:18:36;9.40;99.90
39665;DHT22;26679;50.872;4.332;2023-04-24T01:21:02;9.50;99.90
39665;DHT22;26679;50.872;4.332;2023-04-24T01:23:29;9.40;99.90
39665;DHT22;26679;50.872;4.332;2023-04-24T01:25:55;9.30;99.90
39665;DHT22;26679;50.872;4.332;2023-04-24T01:28:21;9.30;99.90
39665;DHT22;26679;50.872;4.332;2023-04-24T01:30:47;9.20;99.90
39665;DHT22;26679;50.872;4.332;2023-04-24T01:33:12;9.20;99.90
39665;DHT22;26679;50.872;4.332;2023-04-24T01:35:38;9.20;99.90
39665;DHT22;26679;50.872;4.332;2023-04-24T01:38:04;9.20;99.90
39665;DHT22;26679;50.872;4.332;2023-04-24T01:40:31;9.20;99.90
39665;DHT22;26679;50.872;4.332;2023-04-24T01:42:57;9.20;99.90
39665;DHT22;26679;50.872;4.332;2023-04-24T01:45:22;9.10;99.90
39665;DHT22;26679;50.872;4.332;2023-04-24T01:47:48;9.00;99.90
39665;DHT22;26679;50.872;4.332;2023-04-24T01:50:14;9.10;99.90
39665;DHT22;26679;50.872;4.332;2023-04-24T01:52:40;9.20;99.90
39665;DHT22;26679;50.872;4.332;2023-04-24T01:55:06;9.20;99.90
39665;DHT22;26679;50.872;4.332;2023-04-24T01:57:32;9.10;99.90
39665;DHT22;26679;50.872;4.332;2023-04-24T01:59:58;9.20;99.90
39665;DHT22;26679;50.872;4.332;2023-04-24T02:02:23;9.20;99.90
39665;DHT22;26679;50.872;4.332;2023-04-24T02:04:50;9.10;99.90
39665;DHT22;26679;50.872;4.332;2023-04-24T02:07:15;9.10;99.90
39665;DHT22;26679;50.872;4.332;2023-04-24T02:09:41;9.10;99.90
39665;DHT22;26679;50.872;4.332;2023-04-24T02:12:06;9.00;99.90
39665;DHT22;26679;50.872;4.332;2023-04-24T02:14:32;9.10;99.90
39665;DHT22;26679;50.872;4.332;2023-04-24T02:16:58;9.10;99.90
39665;DHT22;26679;50.872;4.332;2023-04-24T02:19:23;9.10;99.90
39665;DHT22;26679;50.872;4.332;2023-04-24T02:21:49;9.00;99.90
39665;DHT22;26679;50.872;4.332;2023-04-24T02:24:14;9.10;99.90
39665;DHT22;26679;50.872;4.332;2023-04-24T02:26:41;9.10;99.90
39665;DHT22;26679;50.872;4.332;2023-04-24T02:29:06;9.10;99.90
39665;DHT22;26679;50.872;4.332;2023-04-24T02:31:32;9.10;99.90
39665;DHT22;26679;50.872;4.332;2023-04-24T02:33:57;9.20;99.90
39665;DHT22;26679;50.872;4.332;2023-04-24T02:36:23;9.20;99.90
39665;DHT22;26679;50.872;4.332;2023-04-24T02:38:48;9.20;99.90
39665;DHT22;26679;50.872;4.332;2023-04-24T02:41:14;9.30;99.90
39665;DHT22;26679;50.872;4.332;2023-04-24T02:43:39;9.20;99.90
39665;DHT22;26679;50.872;4.332;2023-04-24T02:46:05;9.20;99.90
39665;DHT22;26679;50.872;4.332;2023-04-24T02:48:30;9.20;99.90
39665;DHT22;26679;50.872;4.332;2023-04-24T02:50:56;9.10;99.90
39665;DHT22;26679;50.872;4.332;2023-04-24T02:53:22;9.20;99.90
39665;DHT22;26679;50.872;4.332;2023-04-24T02:55:48;9.20;99.90
39665;DHT22;26679;50.872;4.332;2023-04-24T02:58:14;9.10;99.90
39665;DHT22;26679;50.872;4.332;2023-04-24T03:00:40;9.10;99.90
39665;DHT22;26679;50.872;4.332;2023-04-24T03:03:05;9.20;99.90
39665;DHT22;26679;50.872;4.332;2023-04-24T03:05:32;9.10;99.90
39665;DHT22;26679;50.872;4.332;2023-04-24T03:07:57;9.10;99.90
39665;DHT22;26679;50.872;4.332;2023-04-24T03:10:23;9.00;99.90
39665;DHT22;26679;50.872;4.332;2023-04-24T03:12:48;9.00;99.90
39665;DHT22;26679;50.872;4.332;2023-04-24T03:15:14;8.90;99.90
39665;DHT22;26679;50.872;4.332;2023-04-24T03:17:40;8.90;99.90
39665;DHT22;26679;50.872;4.332;2023-04-24T03:20:05;9.00;99.90
39665;DHT22;26679;50.872;4.332;2023-04-24T03:22:32;9.00;99.90
39665;DHT22;26679;50.872;4.332;2023-04-24T03:24:58;8.90;99.90
39665;DHT22;26679;50.872;4.332;2023-04-24T03:27:24;8.90;99.90
39665;DHT22;26679;50.872;4.332;2023-04-24T03:29:50;9.70;99.90
39665;DHT22;26679;50.872;4.332;2023-04-24T03:32:21;8.90;99.90
39665;DHT22;26679;50.872;4.332;2023-04-24T03:34:48;9.00;99.90
39665;DHT22;26679;50.872;4.332;2023-04-24T03:37:14;9.10;99.90
39665;DHT22;26679;50.872;4.332;2023-04-24T03:39:40;9.10;99.90
39665;DHT22;26679;50.872;4.332;2023-04-24T03:42:05;8.90;99.90
39665;DHT22;26679;50.872;4.332;2023-04-24T03:44:31;8.90;99.90
39665;DHT22;26679;50.872;4.332;2023-04-24T03:46:57;9.00;99.90
39665;DHT22;26679;50.872;4.332;2023-04-24T03:49:23;9.00;99.90
39665;DHT22;26679;50.872;4.332;2023-04-24T03:51:48;9.00;99.90
39665;DHT22;26679;50.872;4.332;2023-04-24T03:54:14;9.10;99.90
39665;DHT22;26679;50.872;4.332;2023-04-24T03:56:40;9.10;99.90
39665;DHT22;26679;50.872;4.332;2023-04-24T03:59:05;9.00;99.90
39665;DHT22;26679;50.872;4.332;2023-04-24T04:01:31;9.10;99.90
39665;DHT22;26679;50.872;4.332;2023-04-24T04:03:56;9.20;99.90
39665;DHT22;26679;50.872;4.332;2023-04-24T04:06:22;9.10;99.90
39665;DHT22;26679;50.872;4.332;2023-04-24T04:08:47;9.10;99.90
39665;DHT22;26679;50.872;4.332;2023-04-24T04:11:13;9.30;99.90
39665;DHT22;26679;50.872;4.332;2023-04-24T04:13:38;9.20;99.90
39665;DHT22;26679;50.872;4.332;2023-04-24T04:16:04;9.20;99.90
39665;DHT22;26679;50.872;4.332;2023-04-24T04:18:30;9.20;99.90
39665;DHT22;26679;50.872;4.332;2023-04-24T04:20:55;9.20;99.90
39665;DHT22;26679;50.872;4.332;2023-04-24T04:23:22;9.20;99.90
39665;DHT22;26679;50.872;4.332;2023-04-24T04:25:47;9.10;99.90
39665;DHT22;26679;50.872;4.332;2023-04-24T04:28:13;9.00;99.90
39665;DHT22;26679;50.872;4.332;2023-04-24T04:30:39;9.10;99.90
39665;DHT22;26679;50.872;4.332;2023-04-24T04:35:40;9.10;99.90
39665;DHT22;26679;50.872;4.332;2023-04-24T04:38:06;9.20;99.90
39665;DHT22;26679;50.872;4.332;2023-04-24T04:40:33;8.70;99.90
39665;DHT22;26679;50.872;4.332;2023-04-24T04:42:59;9.30;99.90
39665;DHT22;26679;50.872;4.332;2023-04-24T04:45:24;8.20;99.90
39665;DHT22;26679;50.872;4.332;2023-04-24T04:47:52;9.10;99.90
39665;DHT22;26679;50.872;4.332;2023-04-24T04:50:20;9.10;99.90
39665;DHT22;26679;50.872;4.332;2023-04-24T04:52:45;9.10;99.90
39665;DHT22;26679;50.872;4.332;2023-04-24T04:55:11;9.20;99.90
39665;DHT22;26679;50.872;4.332;2023-04-24T04:57:40;9.10;99.90
39665;DHT22;26679;50.872;4.332;2023-04-24T05:00:05;9.10;99.90
39665;DHT22;26679;50.872;4.332;2023-04-24T05:02:32;9.00;99.90
39665;DHT22;26679;50.872;4.332;2023-04-24T05:04:58;9.00;99.90
39665;DHT22;26679;50.872;4.332;2023-04-24T05:07:23;8.70;99.90
39665;DHT22;26679;50.872;4.332;2023-04-24T05:09:49;9.00;99.90
39665;DHT22;26679;50.872;4.332;2023-04-24T05:12:16;9.00;99.90
39665;DHT22;26679;50.872;4.332;2023-04-24T05:14:42;9.10;99.90
39665;DHT22;26679;50.872;4.332;2023-04-24T05:17:09;8.90;99.90
39665;DHT22;26679;50.872;4.332;2023-04-24T05:19:35;8.90;99.90
39665;DHT22;26679;50.872;4.332;2023-04-24T05:22:03;8.80;99.90
39665;DHT22;26679;50.872;4.332;2023-04-24T05:24:30;8.80;99.90
39665;DHT22;26679;50.872;4.332;2023-04-24T05:26:56;9.00;99.90
39665;DHT22;26679;50.872;4.332;2023-04-24T05:29:22;8.90;99.90
39665;DHT22;26679;50.872;4.332;2023-04-24T05:31:47;8.90;99.90
39665;DHT22;26679;50.872;4.332;2023-04-24T05:34:13;8.90;99.90
39665;DHT22;26679;50.872;4.332;2023-04-24T05:36:39;8.90;99.90
39665;DHT22;26679;50.872;4.332;2023-04-24T05:39:05;8.80;99.90
39665;DHT22;26679;50.872;4.332;2023-04-24T05:41:33;8.80;99.90
39665;DHT22;26679;50.872;4.332;2023-04-24T05:43:59;8.80;99.90
39665;DHT22;26679;50.872;4.332;2023-04-24T05:46:25;8.90;99.90
39665;DHT22;26679;50.872;4.332;2023-04-24T05:48:50;8.90;99.90
39665;DHT22;26679;50.872;4.332;2023-04-24T05:51:16;8.90;99.90
39665;DHT22;26679;50.872;4.332;2023-04-24T05:53:41;8.90;99.90
39665;DHT22;26679;50.872;4.332;2023-04-24T05:56:07;8.90;99.90
39665;DHT22;26679;50.872;4.332;2023-04-24T05:58:32;8.80;99.90
39665;DHT22;26679;50.872;4.332;2023-04-24T06:00:58;8.80;99.90
39665;DHT22;26679;50.872;4.332;2023-04-24T06:03:26;8.70;99.90
39665;DHT22;26679;50.872;4.332;2023-04-24T06:05:52;8.90;99.90
39665;DHT22;26679;50.872;4.332;2023-04-24T06:08:18;8.80;99.90
39665;DHT22;26679;50.872;4.332;2023-04-24T06:10:44;10.00;99.90
39665;DHT22;26679;50.872;4.332;2023-04-24T06:13:10;8.90;99.90
39665;DHT22;26679;50.872;4.332;2023-04-24T06:15:36;8.90;99.90
39665;DHT22;26679;50.872;4.332;2023-04-24T06:18:02;8.80;99.90
39665;DHT22;26679;50.872;4.332;2023-04-24T06:20:28;8.80;99.90
39665;DHT22;26679;50.872;4.332;2023-04-24T06:22:54;8.80;99.90
39665;DHT22;26679;50.872;4.332;2023-04-24T06:25:19;8.80;99.90
39665;DHT22;26679;50.872;4.332;2023-04-24T06:27:45;8.90;99.90
39665;DHT22;26679;50.872;4.332;2023-04-24T06:30:10;9.00;99.90
39665;DHT22;26679;50.872;4.332;2023-04-24T06:32:36;8.90;99.90
39665;DHT22;26679;50.872;4.332;2023-04-24T06:35:02;8.80;99.90
39665;DHT22;26679;50.872;4.332;2023-04-24T06:37:30;8.70;99.90
39665;DHT22;26679;50.872;4.332;2023-04-24T06:39:55;8.70;99.90
39665;DHT22;26679;50.872;4.332;2023-04-24T06:42:21;8.70;99.90
39665;DHT22;26679;50.872;4.332;2023-04-24T06:44:47;8.60;99.90
39665;DHT22;26679;50.872;4.332;2023-04-24T06:47:12;8.70;99.90
39665;DHT22;26679;50.872;4.332;2023-04-24T06:49:41;8.80;99.90
39665;DHT22;26679;50.872;4.332;2023-04-24T06:52:06;8.90;99.90
39665;DHT22;26679;50.872;4.332;2023-04-24T06:54:32;8.90;99.90
39665;DHT22;26679;50.872;4.332;2023-04-24T06:56:58;9.00;99.90
39665;DHT22;26679;50.872;4.332;2023-04-24T06:59:24;9.20;99.90
39665;DHT22;26679;50.872;4.332;2023-04-24T07:01:50;9.10;99.90
39665;DHT22;26679;50.872;4.332;2023-04-24T07:04:16;9.20;99.90
39665;DHT22;26679;50.872;4.332;2023-04-24T07:06:42;9.10;99.90
39665;DHT22;26679;50.872;4.332;2023-04-24T07:09:10;9.10;99.90
39665;DHT22;26679;50.872;4.332;2023-04-24T07:11:36;9.20;99.90
39665;DHT22;26679;50.872;4.332;2023-04-24T07:14:03;9.20;99.90
39665;DHT22;26679;50.872;4.332;2023-04-24T07:16:29;9.10;99.90
39665;DHT22;26679;50.872;4.332;2023-04-24T07:18:55;9.10;99.90
39665;DHT22;26679;50.872;4.332;2023-04-24T07:21:20;9.10;99.90
39665;DHT22;26679;50.872;4.332;2023-04-24T07:23:46;9.20;99.90
39665;DHT22;26679;50.872;4.332;2023-04-24T07:26:12;9.20;99.90
39665;DHT22;26679;50.872;4.332;2023-04-24T07:28:37;9.30;99.90
39665;DHT22;26679;50.872;4.332;2023-04-24T07:31:03;9.30;99.90
39665;DHT22;26679;50.872;4.332;2023-04-24T07:33:28;9.40;99.90
39665;DHT22;26679;50.872;4.332;2023-04-24T07:35:54;9.50;99.90
39665;DHT22;26679;50.872;4.332;2023-04-24T07:38:22;9.50;99.90
39665;DHT22;26679;50.872;4.332;2023-04-24T07:40:48;9.50;99.90
39665;DHT22;26679;50.872;4.332;2023-04-24T07:43:14;9.50;99.90
39665;DHT22;26679;50.872;4.332;2023-04-24T07:45:39;9.50;99.90
39665;DHT22;26679;50.872;4.332;2023-04-24T07:48:06;9.60;99.90
39665;DHT22;26679;50.872;4.332;2023-04-24T07:50:31;9.70;99.90
39665;DHT22;26679;50.872;4.332;2023-04-24T07:52:57;9.80;99.90
39665;DHT22;26679;50.872;4.332;2023-04-24T07:55:23;9.90;99.90
39665;DHT22;26679;50.872;4.332;2023-04-24T07:57:50;10.00;99.90
39665;DHT22;26679;50.872;4.332;2023-04-24T08:00:16;11.20;99.90
39665;DHT22;26679;50.872;4.332;2023-04-24T08:02:42;9.80;99.90
39665;DHT22;26679;50.872;4.332;2023-04-24T08:05:07;9.90;99.90
39665;DHT22;26679;50.872;4.332;2023-04-24T08:07:33;9.70;99.90
39665;DHT22;26679;50.872;4.332;2023-04-24T08:10:00;9.70;99.90
39665;DHT22;26679;50.872;4.332;2023-04-24T08:12:27;9.70;99.90
39665;DHT22;26679;50.872;4.332;2023-04-24T08:14:53;9.90;99.90
39665;DHT22;26679;50.872;4.332;2023-04-24T08:17:18;10.00;99.90
39665;DHT22;26679;50.872;4.332;2023-04-24T08:19:45;10.20;99.90
39665;DHT22;26679;50.872;4.332;2023-04-24T08:22:14;10.40;99.90
39665;DHT22;26679;50.872;4.332;2023-04-24T08:24:40;10.40;99.90
39665;DHT22;26679;50.872;4.332;2023-04-24T08:27:05;10.60;99.90
39665;DHT22;26679;50.872;4.332;2023-04-24T08:29:34;10.60;99.90
39665;DHT22;26679;50.872;4.332;2023-04-24T08:32:02;10.60;99.90
39665;DHT22;26679;50.872;4.332;2023-04-24T08:34:31;10.50;99.90
39665;DHT22;26679;50.872;4.332;2023-04-24T08:36:57;9.20;99.90
39665;DHT22;26679;50.872;4.332;2023-04-24T08:39:22;10.60;99.90
39665;DHT22;26679;50.872;4.332;2023-04-24T08:42:06;10.80;99.90
39665;DHT22;26679;50.872;4.332;2023-04-24T08:44:38;10.60;99.90
39665;DHT22;26679;50.872;4.332;2023-04-24T08:47:03;10.70;99.90
39665;DHT22;26679;50.872;4.332;2023-04-24T08:49:29;10.90;99.90
39665;DHT22;26679;50.872;4.332;2023-04-24T08:51:55;11.10;99.90
39665;DHT22;26679;50.872;4.332;2023-04-24T08:54:21;11.10;99.90
39665;DHT22;26679;50.872;4.332;2023-04-24T08:56:47;11.20;99.90
39665;DHT22;26679;50.872;4.332;2023-04-24T08:59:14;11.50;99.90
39665;DHT22;26679;50.872;4.332;2023-04-24T09:01:40;11.70;99.90
39665;DHT22;26679;50.872;4.332;2023-04-24T09:04:06;11.90;99.90
39665;DHT22;26679;50.872;4.332;2023-04-24T09:06:32;12.70;99.90
39665;DHT22;26679;50.872;4.332;2023-04-24T09:09:01;13.40;99.90
39665;DHT22;26679;50.872;4.332;2023-04-24T09:11:27;13.80;99.90
39665;DHT22;26679;50.872;4.332;2023-04-24T09:13:55;13.50;99.90
39665;DHT22;26679;50.872;4.332;2023-04-24T09:16:21;13.70;99.90
39665;DHT22;26679;50.872;4.332;2023-04-24T09:18:51;14.10;99.90
39665;DHT22;26679;50.872;4.332;2023-04-24T09:21:17;13.90;99.90
39665;DHT22;26679;50.872;4.332;2023-04-24T09:23:42;13.50;99.90
39665;DHT22;26679;50.872;4.332;2023-04-24T09:26:08;12.90;99.90
39665;DHT22;26679;50.872;4.332;2023-04-24T09:28:35;12.70;99.90
39665;DHT22;26679;50.872;4.332;2023-04-24T09:33:48;12.30;99.90
39665;DHT22;26679;50.872;4.332;2023-04-24T09:36:18;12.10;99.90
39665;DHT22;26679;50.872;4.332;2023-04-24T09:38:43;12.00;99.90
39665;DHT22;26679;50.872;4.332;2023-04-24T09:41:12;11.90;99.90
39665;DHT22;26679;50.872;4.332;2023-04-24T09:43:38;12.30;99.90
39665;DHT22;26679;50.872;4.332;2023-04-24T09:46:05;13.80;99.90
39665;DHT22;26679;50.872;4.332;2023-04-24T09:48:31;14.40;99.90
39665;DHT22;26679;50.872;4.332;2023-04-24T09:51:00;13.90;99.90
39665;DHT22;26679;50.872;4.332;2023-04-24T09:53:27;13.30;99.90
39665;DHT22;26679;50.872;4.332;2023-04-24T09:55:52;13.00;99.90
39665;DHT22;26679;50.872;4.332;2023-04-24T09:58:25;12.70;99.90
39665;DHT22;26679;50.872;4.332;2023-04-24T10:00:55;12.60;99.90
39665;DHT22;26679;50.872;4.332;2023-04-24T10:03:23;12.50;99.90
39665;DHT22;26679;50.872;4.332;2023-04-24T10:05:49;12.30;99.90
39665;DHT22;26679;50.872;4.332;2023-04-24T10:08:16;12.30;99.90
39665;DHT22;26679;50.872;4.332;2023-04-24T10:10:42;12.40;99.90
39665;DHT22;26679;50.872;4.332;2023-04-24T10:13:12;12.40;99.90
39665;DHT22;26679;50.872;4.332;2023-04-24T10:15:38;12.40;99.90
39665;DHT22;26679;50.872;4.332;2023-04-24T10:18:04;12.40;99.90
39665;DHT22;26679;50.872;4.332;2023-04-24T10:20:31;12.60;99.90
39665;DHT22;26679;50.872;4.332;2023-04-24T10:22:58;12.40;99.90
39665;DHT22;26679;50.872;4.332;2023-04-24T10:25:25;12.40;99.90
39665;DHT22;26679;50.872;4.332;2023-04-24T10:27:51;12.20;99.90
39665;DHT22;26679;50.872;4.332;2023-04-24T10:30:19;12.20;99.90
39665;DHT22;26679;50.872;4.332;2023-04-24T10:32:45;12.20;99.90
39665;DHT22;26679;50.872;4.332;2023-04-24T10:35:14;12.30;99.90
39665;DHT22;26679;50.872;4.332;2023-04-24T10:37:44;12.60;99.90
39665;DHT22;26679;50.872;4.332;2023-04-24T10:40:10;12.60;99.90
39665;DHT22;26679;50.872;4.332;2023-04-24T10:42:39;12.70;99.90
39665;DHT22;26679;50.872;4.332;2023-04-24T10:45:06;13.00;99.90
39665;DHT22;26679;50.872;4.332;2023-04-24T10:50:12;14.50;99.90
39665;DHT22;26679;50.872;4.332;2023-04-24T10:52:44;14.70;99.90
39665;DHT22;26679;50.872;4.332;2023-04-24T10:55:10;14.10;99.90
39665;DHT22;26679;50.872;4.332;2023-04-24T10:57:37;13.70;99.90
39665;DHT22;26679;50.872;4.332;2023-04-24T11:00:10;13.40;99.90
39665;DHT22;26679;50.872;4.332;2023-04-24T11:02:38;13.20;99.90
39665;DHT22;26679;50.872;4.332;2023-04-24T11:05:05;13.30;99.90
39665;DHT22;26679;50.872;4.332;2023-04-24T11:10:21;14.30;99.90
39665;DHT22;26679;50.872;4.332;2023-04-24T11:12:50;13.70;99.90
39665;DHT22;26679;50.872;4.332;2023-04-24T11:15:16;13.60;99.90
39665;DHT22;26679;50.872;4.332;2023-04-24T11:17:44;13.90;99.90
39665;DHT22;26679;50.872;4.332;2023-04-24T11:20:11;14.10;99.90
39665;DHT22;26679;50.872;4.332;2023-04-24T11:22:38;14.40;99.90
39665;DHT22;26679;50.872;4.332;2023-04-24T11:25:07;14.80;99.90
39665;DHT22;26679;50.872;4.332;2023-04-24T11:27:40;15.10;99.90
39665;DHT22;26679;50.872;4.332;2023-04-24T11:30:05;15.10;99.90
39665;DHT22;26679;50.872;4.332;2023-04-24T11:32:38;15.20;99.90
39665;DHT22;26679;50.872;4.332;2023-04-24T11:37:44;14.80;99.90
39665;DHT22;26679;50.872;4.332;2023-04-24T11:40:20;13.10;99.90
39665;DHT22;26679;50.872;4.332;2023-04-24T11:42:48;14.30;99.90
39665;DHT22;26679;50.872;4.332;2023-04-24T11:45:15;14.20;99.90
39665;DHT22;26679;50.872;4.332;2023-04-24T11:47:41;13.80;99.90
39665;DHT22;26679;50.872;4.332;2023-04-24T11:50:08;13.70;99.90
39665;DHT22;26679;50.872;4.332;2023-04-24T11:52:37;13.90;99.90
39665;DHT22;26679;50.872;4.332;2023-04-24T11:55:03;14.00;99.90
39665;DHT22;26679;50.872;4.332;2023-04-24T11:57:29;14.90;99.90
39665;DHT22;26679;50.872;4.332;2023-04-24T12:00:02;16.00;99.90
39665;DHT22;26679;50.872;4.332;2023-04-24T12:02:30;16.40;99.90
39665;DHT22;26679;50.872;4.332;2023-04-24T12:04:55;16.10;99.90
39665;DHT22;26679;50.872;4.332;2023-04-24T12:07:22;16.00;99.50
39665;DHT22;26679;50.872;4.332;2023-04-24T12:09:49;15.70;99.70
39665;DHT22;26679;50.872;4.332;2023-04-24T12:12:15;15.90;99.90
39665;DHT22;26679;50.872;4.332;2023-04-24T12:14:42;16.90;99.30
39665;DHT22;26679;50.872;4.332;2023-04-24T12:17:07;16.90;98.40
39665;DHT22;26679;50.872;4.332;2023-04-24T12:19:33;17.10;99.10
39665;DHT22;26679;50.872;4.332;2023-04-24T12:22:02;17.60;97.50
39665;DHT22;26679;50.872;4.332;2023-04-24T12:24:29;18.80;96.70
39665;DHT22;26679;50.872;4.332;2023-04-24T12:26:58;19.50;95.80
39665;DHT22;26679;50.872;4.332;2023-04-24T12:29:27;19.60;94.60
39665;DHT22;26679;50.872;4.332;2023-04-24T12:31:53;19.90;93.60
39665;DHT22;26679;50.872;4.332;2023-04-24T12:34:21;19.10;94.90
39665;DHT22;26679;50.872;4.332;2023-04-24T12:36:47;19.00;94.70
39665;DHT22;26679;50.872;4.332;2023-04-24T12:39:17;18.40;94.70
39665;DHT22;26679;50.872;4.332;2023-04-24T12:44:19;19.80;94.50
39665;DHT22;26679;50.872;4.332;2023-04-24T12:46:45;20.80;94.30
39665;DHT22;26679;50.872;4.332;2023-04-24T12:49:10;21.10;92.70
39665;DHT22;26679;50.872;4.332;2023-04-24T12:51:36;20.60;92.30
39665;DHT22;26679;50.872;4.332;2023-04-24T12:56:49;20.30;92.40
39665;DHT22;26679;50.872;4.332;2023-04-24T12:59:15;19.80;91.90
39665;DHT22;26679;50.872;4.332;2023-04-24T13:01:40;18.90;93.00
39665;DHT22;26679;50.872;4.332;2023-04-24T13:04:06;18.70;92.80
39665;DHT22;26679;50.872;4.332;2023-04-24T13:06:33;18.70;93.30
39665;DHT22;26679;50.872;4.332;2023-04-24T13:08:58;18.30;93.30
39665;DHT22;26679;50.872;4.332;2023-04-24T13:11:24;19.20;94.40
39665;DHT22;26679;50.872;4.332;2023-04-24T13:13:51;20.10;92.40
39665;DHT22;26679;50.872;4.332;2023-04-24T13:16:17;20.60;91.40
39665;DHT22;26679;50.872;4.332;2023-04-24T13:18:44;20.80;91.40
39665;DHT22;26679;50.872;4.332;2023-04-24T13:21:09;21.40;90.40
39665;DHT22;26679;50.872;4.332;2023-04-24T13:23:35;21.20;90.40
39665;DHT22;26679;50.872;4.332;2023-04-24T13:26:02;20.80;90.80
39665;DHT22;26679;50.872;4.332;2023-04-24T13:28:27;20.30;91.50
39665;DHT22;26679;50.872;4.332;2023-04-24T13:30:55;19.80;91.70
39665;DHT22;26679;50.872;4.332;2023-04-24T13:36:15;19.10;91.40
39665;DHT22;26679;50.872;4.332;2023-04-24T13:38:43;19.00;92.20
39665;DHT22;26679;50.872;4.332;2023-04-24T13:41:09;19.30;91.90
39665;DHT22;26679;50.872;4.332;2023-04-24T13:43:35;19.30;91.20
39665;DHT22;26679;50.872;4.332;2023-04-24T13:46:01;19.20;91.70
39665;DHT22;26679;50.872;4.332;2023-04-24T13:48:28;18.90;92.20
39665;DHT22;26679;50.872;4.332;2023-04-24T13:50:54;18.30;92.40
39665;DHT22;26679;50.872;4.332;2023-04-24T13:53:20;17.80;92.90
39665;DHT22;26679;50.872;4.332;2023-04-24T13:55:45;17.90;93.40
39665;DHT22;26679;50.872;4.332;2023-04-24T13:58:11;19.10;93.30
39665;DHT22;26679;50.872;4.332;2023-04-24T14:00:36;19.20;91.60
39665;DHT22;26679;50.872;4.332;2023-04-24T14:03:02;19.20;91.90
39665;DHT22;26679;50.872;4.332;2023-04-24T14:05:27;18.80;91.20
39665;DHT22;26679;50.872;4.332;2023-04-24T14:07:53;18.70;91.30
39665;DHT22;26679;50.872;4.332;2023-04-24T14:10:18;18.70;91.00
39665;DHT22;26679;50.872;4.332;2023-04-24T14:12:44;18.10;91.10
39665;DHT22;26679;50.872;4.332;2023-04-24T14:15:10;17.50;91.40
39665;DHT22;26679;50.872;4.332;2023-04-24T14:17:35;17.20;91.80
39665;DHT22;26679;50.872;4.332;2023-04-24T14:20:01;16.80;92.30
39665;DHT22;26679;50.872;4.332;2023-04-24T14:22:27;16.40;92.20
39665;DHT22;26679;50.872;4.332;2023-04-24T14:24:52;16.20;92.30
39665;DHT22;26679;50.872;4.332;2023-04-24T14:27:18;16.10;93.00
39665;DHT22;26679;50.872;4.332;2023-04-24T14:29:43;16.00;93.00
39665;DHT22;26679;50.872;4.332;2023-04-24T14:32:10;16.00;92.80
39665;DHT22;26679;50.872;4.332;2023-04-24T14:34:36;16.00;93.10
39665;DHT22;26679;50.872;4.332;2023-04-24T14:37:01;16.00;92.90
39665;DHT22;26679;50.872;4.332;2023-04-24T14:39:28;15.90;93.10
39665;DHT22;26679;50.872;4.332;2023-04-24T14:41:53;15.80;92.90
39665;DHT22;26679;50.872;4.332;2023-04-24T14:44:19;15.70;93.20
39665;DHT22;26679;50.872;4.332;2023-04-24T14:46:44;15.70;93.40
39665;DHT22;26679;50.872;4.332;2023-04-24T14:49:10;15.90;93.80
39665;DHT22;26679;50.872;4.332;2023-04-24T14:51:37;16.50;93.40
39665;DHT22;26679;50.872;4.332;2023-04-24T14:54:03;15.60;93.10
39665;DHT22;26679;50.872;4.332;2023-04-24T14:56:28;15.40;93.60
39665;DHT22;26679;50.872;4.332;2023-04-24T14:58:54;15.40;93.80
39665;DHT22;26679;50.872;4.332;2023-04-24T15:01:20;15.50;93.90
39665;DHT22;26679;50.872;4.332;2023-04-24T15:03:46;15.50;93.90
39665;DHT22;26679;50.872;4.332;2023-04-24T15:06:12;15.40;93.60
39665;DHT22;26679;50.872;4.332;2023-04-24T15:08:37;15.50;93.60
39665;DHT22;26679;50.872;4.332;2023-04-24T15:11:03;15.70;94.00
39665;DHT22;26679;50.872;4.332;2023-04-24T15:13:28;15.80;94.00
39665;DHT22;26679;50.872;4.332;2023-04-24T15:15:54;15.80;93.60
39665;DHT22;26679;50.872;4.332;2023-04-24T15:18:19;15.60;93.40
39665;DHT22;26679;50.872;4.332;2023-04-24T15:20:45;15.50;93.40
39665;DHT22;26679;50.872;4.332;2023-04-24T15:23:11;15.30;93.20
39665;DHT22;26679;50.872;4.332;2023-04-24T15:25:36;13.60;92.80
39665;DHT22;26679;50.872;4.332;2023-04-24T15:28:02;15.00;93.40
39665;DHT22;26679;50.872;4.332;2023-04-24T15:30:28;14.90;93.60
39665;DHT22;26679;50.872;4.332;2023-04-24T15:32:54;15.00;93.50
39665;DHT22;26679;50.872;4.332;2023-04-24T15:35:20;15.10;93.90
39665;DHT22;26679;50.872;4.332;2023-04-24T15:37:45;15.20;94.20
39665;DHT22;26679;50.872;4.332;2023-04-24T15:40:11;15.40;94.00
39665;DHT22;26679;50.872;4.332;2023-04-24T15:42:38;15.30;94.30
39665;DHT22;26679;50.872;4.332;2023-04-24T15:45:04;15.20;94.20
39665;DHT22;26679;50.872;4.332;2023-04-24T15:47:30;15.00;94.20
39665;DHT22;26679;50.872;4.332;2023-04-24T15:49:56;14.90;94.50
39665;DHT22;26679;50.872;4.332;2023-04-24T15:52:22;14.80;94.30